sensor_id;sensor_type;location;lat;lon;timestamp;P1;durP1;ratioP1;P2;durP2;ratioP2
1090;SDS011;534;48.704;9.122;2023-09-18T04:01:48;4.60;;;1.87;;
1090;SDS011;534;48.704;9.122;2023-09-18T04:04:16;3.60;;;1.90;;
1090;SDS011;534;48.704;9.122;2023-09-18T04:06:43;2.90;;;1.73;;
1090;SDS011;534;48.704;9.122;2023-09-18T04:09:11;3.70;;;2.07;;
1090;SDS011;534;48.704;9.122;2023-09-18T04:11:40;4.00;;;2.00;;
1090;SDS011;534;48.704;9.122;2023-09-18T04:14:06;6.97;;;2.30;;
1090;SDS011;534;48.704;9.122;2023-09-18T04:16:33;3.33;;;1.80;;
1090;SDS011;534;48.704;9.122;2023-09-18T04:19:03;2.90;;;1.60;;
1090;SDS011;534;48.704;9.122;2023-09-18T04:21:30;3.80;;;2.20;;
1090;SDS011;534;48.704;9.122;2023-09-18T04:23:56;5.17;;;1.90;;
1090;SDS011;534;48.704;9.122;2023-09-18T04:26:23;2.33;;;1.57;;
1090;SDS011;534;48.704;9.122;2023-09-18T04:28:54;4.23;;;2.07;;
1090;SDS011;534;48.704;9.122;2023-09-18T04:31:21;2.67;;;1.80;;
1090;SDS011;534;48.704;9.122;2023-09-18T04:33:47;4.20;;;1.87;;
1090;SDS011;534;48.704;9.122;2023-09-18T04:36:16;2.63;;;1.90;;
1090;SDS011;534;48.704;9.122;2023-09-18T04:38:42;3.60;;;2.27;;
1090;SDS011;534;48.704;9.122;2023-09-18T04:41:09;3.27;;;1.60;;
1090;SDS011;534;48.704;9.122;2023-09-18T04:43:36;3.10;;;1.80;;
1090;SDS011;534;48.704;9.122;2023-09-18T04:46:04;3.50;;;1.70;;
1090;SDS011;534;48.704;9.122;2023-09-18T04:48:31;2.87;;;1.60;;
1090;SDS011;534;48.704;9.122;2023-09-18T04:50:58;3.00;;;1.70;;
1090;SDS011;534;48.704;9.122;2023-09-18T04:53:27;5.03;;;1.90;;
1090;SDS011;534;48.704;9.122;2023-09-18T04:55:54;5.57;;;2.07;;
1090;SDS011;534;48.704;9.122;2023-09-18T04:58:21;2.60;;;1.67;;
1090;SDS011;534;48.704;9.122;2023-09-18T05:00:52;2.60;;;1.57;;
1090;SDS011;534;48.704;9.122;2023-09-18T05:03:19;4.10;;;1.80;;
1090;SDS011;534;48.704;9.122;2023-09-18T05:05:46;4.13;;;2.20;;
1090;SDS011;534;48.704;9.122;2023-09-18T05:08:13;4.77;;;1.80;;
1090;SDS011;534;48.704;9.122;2023-09-18T05:10:41;2.53;;;1.70;;
1090;SDS011;534;48.704;9.122;2023-09-18T05:13:08;3.70;;;1.70;;
1090;SDS011;534;48.704;9.122;2023-09-18T05:15:35;2.27;;;1.40;;
1090;SDS011;534;48.704;9.122;2023-09-18T05:18:03;3.50;;;1.50;;
1090;SDS011;534;48.704;9.122;2023-09-18T05:20:30;2.97;;;1.80;;
1090;SDS011;534;48.704;9.122;2023-09-18T05:22:58;7.13;;;1.90;;
1090;SDS011;534;48.704;9.122;2023-09-18T05:25:27;3.10;;;1.77;;
1090;SDS011;534;48.704;9.122;2023-09-18T05:27:58;2.70;;;1.50;;
1090;SDS011;534;48.704;9.122;2023-09-18T05:30:27;3.37;;;2.10;;
1090;SDS011;534;48.704;9.122;2023-09-18T05:32:56;2.70;;;1.60;;
1090;SDS011;534;48.704;9.122;2023-09-18T05:35:29;3.27;;;1.57;;
1090;SDS011;534;48.704;9.122;2023-09-18T05:37:56;4.10;;;2.00;;
1090;SDS011;534;48.704;9.122;2023-09-18T05:40:23;3.57;;;2.00;;
1090;SDS011;534;48.704;9.122;2023-09-18T05:42:51;5.47;;;2.10;;
1090;SDS011;534;48.704;9.122;2023-09-18T05:45:20;3.27;;;2.20;;
1090;SDS011;534;48.704;9.122;2023-09-18T05:47:47;2.00;;;1.10;;
1090;SDS011;534;48.704;9.122;2023-09-18T05:50:14;3.57;;;2.43;;
1090;SDS011;534;48.704;9.122;2023-09-18T05:52:41;3.57;;;1.93;;
1090;SDS011;534;48.704;9.122;2023-09-18T05:55:09;2.67;;;1.60;;
1090;SDS011;534;48.704;9.122;2023-09-18T05:57:36;3.57;;;2.00;;
1090;SDS011;534;48.704;9.122;2023-09-18T06:00:04;3.80;;;2.10;;
1090;SDS011;534;48.704;9.122;2023-09-18T06:02:32;4.10;;;1.80;;
1090;SDS011;534;48.704;9.122;2023-09-18T06:05:00;3.60;;;1.97;;
1090;SDS011;534;48.704;9.122;2023-09-18T06:07:27;3.60;;;1.90;;
1090;SDS011;534;48.704;9.122;2023-09-18T06:09:55;4.30;;;1.77;;
1090;SDS011;534;48.704;9.122;2023-09-18T06:12:22;3.70;;;1.87;;
1090;SDS011;534;48.704;9.122;2023-09-18T06:14:49;3.13;;;1.60;;
1090;SDS011;534;48.704;9.122;2023-09-18T06:17:16;4.80;;;2.33;;
1090;SDS011;534;48.704;9.122;2023-09-18T06:19:45;3.20;;;2.10;;
1090;SDS011;534;48.704;9.122;2023-09-18T06:22:11;4.00;;;1.80;;
1090;SDS011;534;48.704;9.122;2023-09-18T06:24:38;2.60;;;1.83;;
1090;SDS011;534;48.704;9.122;2023-09-18T06:27:05;5.47;;;2.47;;
1090;SDS011;534;48.704;9.122;2023-09-18T06:29:32;3.40;;;1.87;;
1090;SDS011;534;48.704;9.122;2023-09-18T06:31:59;3.67;;;1.90;;
1090;SDS011;534;48.704;9.122;2023-09-18T06:34:26;2.57;;;1.90;;
1090;SDS011;534;48.704;9.122;2023-09-18T06:36:54;3.27;;;1.90;;
1090;SDS011;534;48.704;9.122;2023-09-18T06:39:21;3.73;;;1.80;;
1090;SDS011;534;48.704;9.122;2023-09-18T06:41:49;2.73;;;1.60;;
1090;SDS011;534;48.704;9.122;2023-09-18T06:44:15;2.10;;;1.53;;
1090;SDS011;534;48.704;9.122;2023-09-18T06:46:42;3.33;;;1.43;;
1090;SDS011;534;48.704;9.122;2023-09-18T06:49:09;3.23;;;1.70;;
1090;SDS011;534;48.704;9.122;2023-09-18T06:51:35;3.50;;;1.73;;
1090;SDS011;534;48.704;9.122;2023-09-18T06:54:03;4.83;;;1.90;;
1090;SDS011;534;48.704;9.122;2023-09-18T06:56:30;2.67;;;1.60;;
1090;SDS011;534;48.704;9.122;2023-09-18T06:58:57;2.70;;;1.43;;
1090;SDS011;534;48.704;9.122;2023-09-18T07:01:24;3.70;;;1.80;;
1090;SDS011;534;48.704;9.122;2023-09-18T07:03:52;2.77;;;1.60;;
1090;SDS011;534;48.704;9.122;2023-09-18T07:06:19;4.40;;;2.20;;
1090;SDS011;534;48.704;9.122;2023-09-18T07:08:46;3.10;;;1.50;;
1090;SDS011;534;48.704;9.122;2023-09-18T07:11:15;2.20;;;1.47;;
1090;SDS011;534;48.704;9.122;2023-09-18T07:13:42;2.37;;;1.33;;
1090;SDS011;534;48.704;9.122;2023-09-18T07:16:09;2.10;;;1.20;;
1090;SDS011;534;48.704;9.122;2023-09-18T07:18:36;2.33;;;1.50;;
1090;SDS011;534;48.704;9.122;2023-09-18T07:21:03;2.07;;;1.00;;
1090;SDS011;534;48.704;9.122;2023-09-18T07:23:30;2.83;;;1.33;;
1090;SDS011;534;48.704;9.122;2023-09-18T07:25:56;3.80;;;1.30;;
1090;SDS011;534;48.704;9.122;2023-09-18T07:28:24;2.10;;;1.20;;
1090;SDS011;534;48.704;9.122;2023-09-18T07:30:51;3.47;;;1.60;;
1090;SDS011;534;48.704;9.122;2023-09-18T07:33:18;2.60;;;1.20;;
1090;SDS011;534;48.704;9.122;2023-09-18T07:35:45;3.20;;;1.30;;
1090;SDS011;534;48.704;9.122;2023-09-18T07:38:13;2.40;;;1.07;;
1090;SDS011;534;48.704;9.122;2023-09-18T07:40:40;2.40;;;1.40;;
1090;SDS011;534;48.704;9.122;2023-09-18T07:43:06;2.00;;;1.10;;
1090;SDS011;534;48.704;9.122;2023-09-18T07:45:35;3.10;;;1.27;;
1090;SDS011;534;48.704;9.122;2023-09-18T07:48:04;2.73;;;1.10;;
1090;SDS011;534;48.704;9.122;2023-09-18T07:50:31;2.13;;;1.30;;
1090;SDS011;534;48.704;9.122;2023-09-18T07:52:58;1.80;;;1.00;;
1090;SDS011;534;48.704;9.122;2023-09-18T07:55:25;2.40;;;1.30;;
1090;SDS011;534;48.704;9.122;2023-09-18T07:57:52;4.60;;;1.07;;
1090;SDS011;534;48.704;9.122;2023-09-18T08:00:18;1.73;;;0.90;;
1090;SDS011;534;48.704;9.122;2023-09-18T08:02:49;2.60;;;1.00;;
1090;SDS011;534;48.704;9.122;2023-09-18T08:05:19;2.10;;;0.97;;
1090;SDS011;534;48.704;9.122;2023-09-18T08:07:46;2.20;;;1.07;;
1090;SDS011;534;48.704;9.122;2023-09-18T08:10:14;2.10;;;1.00;;
1090;SDS011;534;48.704;9.122;2023-09-18T08:12:41;2.73;;;1.03;;
1090;SDS011;534;48.704;9.122;2023-09-18T08:15:08;2.70;;;0.97;;
1090;SDS011;534;48.704;9.122;2023-09-18T08:17:36;1.90;;;0.90;;
1090;SDS011;534;48.704;9.122;2023-09-18T08:20:04;2.10;;;0.97;;
1090;SDS011;534;48.704;9.122;2023-09-18T08:22:37;2.13;;;1.10;;
1090;SDS011;534;48.704;9.122;2023-09-18T08:25:05;1.73;;;0.90;;
1090;SDS011;534;48.704;9.122;2023-09-18T08:27:33;1.80;;;0.97;;
1090;SDS011;534;48.704;9.122;2023-09-18T08:30:00;1.80;;;0.90;;
1090;SDS011;534;48.704;9.122;2023-09-18T08:32:27;2.20;;;0.93;;
1090;SDS011;534;48.704;9.122;2023-09-18T08:34:55;3.60;;;1.30;;
1090;SDS011;534;48.704;9.122;2023-09-18T08:37:24;2.33;;;1.13;;
1090;SDS011;534;48.704;9.122;2023-09-18T08:39:51;2.23;;;1.03;;
1090;SDS011;534;48.704;9.122;2023-09-18T08:42:18;1.73;;;0.90;;
1090;SDS011;534;48.704;9.122;2023-09-18T08:44:48;3.60;;;1.10;;
1090;SDS011;534;48.704;9.122;2023-09-18T08:47:17;1.57;;;0.80;;
1090;SDS011;534;48.704;9.122;2023-09-18T08:49:44;1.80;;;0.90;;
1090;SDS011;534;48.704;9.122;2023-09-18T08:52:12;2.20;;;0.90;;
1090;SDS011;534;48.704;9.122;2023-09-18T08:54:42;1.90;;;0.83;;
1090;SDS011;534;48.704;9.122;2023-09-18T08:57:09;2.00;;;0.90;;
1090;SDS011;534;48.704;9.122;2023-09-18T08:59:37;1.47;;;0.70;;
1090;SDS011;534;48.704;9.122;2023-09-18T09:02:06;1.80;;;0.90;;
1090;SDS011;534;48.704;9.122;2023-09-18T09:04:36;2.00;;;1.00;;
1090;SDS011;534;48.704;9.122;2023-09-18T09:07:03;1.67;;;0.80;;
1090;SDS011;534;48.704;9.122;2023-09-18T09:09:31;1.60;;;0.80;;
1090;SDS011;534;48.704;9.122;2023-09-18T09:11:59;2.37;;;0.97;;
1090;SDS011;534;48.704;9.122;2023-09-18T09:14:26;3.30;;;0.80;;
1090;SDS011;534;48.704;9.122;2023-09-18T09:16:54;1.70;;;0.90;;
1090;SDS011;534;48.704;9.122;2023-09-18T09:19:31;3.27;;;0.87;;
1090;SDS011;534;48.704;9.122;2023-09-18T09:22:02;2.90;;;1.13;;
1090;SDS011;534;48.704;9.122;2023-09-18T09:24:39;2.23;;;1.10;;
1090;SDS011;534;48.704;9.122;2023-09-18T09:27:07;1.97;;;1.00;;
1090;SDS011;534;48.704;9.122;2023-09-18T09:29:34;3.17;;;1.00;;
1090;SDS011;534;48.704;9.122;2023-09-18T09:32:14;2.53;;;0.90;;
1090;SDS011;534;48.704;9.122;2023-09-18T09:34:42;2.63;;;1.10;;
1090;SDS011;534;48.704;9.122;2023-09-18T09:37:09;2.57;;;1.00;;
1090;SDS011;534;48.704;9.122;2023-09-18T09:39:45;2.80;;;1.23;;
1090;SDS011;534;48.704;9.122;2023-09-18T09:42:16;3.33;;;1.10;;
1090;SDS011;534;48.704;9.122;2023-09-18T09:44:54;1.87;;;1.07;;
1090;SDS011;534;48.704;9.122;2023-09-18T09:47:26;2.93;;;1.10;;
1090;SDS011;534;48.704;9.122;2023-09-18T09:49:55;4.00;;;0.97;;
1090;SDS011;534;48.704;9.122;2023-09-18T09:52:22;2.40;;;1.13;;
1090;SDS011;534;48.704;9.122;2023-09-18T09:54:48;2.27;;;1.17;;
1090;SDS011;534;48.704;9.122;2023-09-18T09:57:17;3.17;;;1.40;;
1090;SDS011;534;48.704;9.122;2023-09-18T09:59:43;4.73;;;1.10;;
1090;SDS011;534;48.704;9.122;2023-09-18T10:02:10;1.87;;;1.10;;
1090;SDS011;534;48.704;9.122;2023-09-18T10:04:44;4.63;;;1.40;;
1090;SDS011;534;48.704;9.122;2023-09-18T10:07:13;1.80;;;0.90;;
1090;SDS011;534;48.704;9.122;2023-09-18T10:09:42;2.10;;;1.00;;
1090;SDS011;534;48.704;9.122;2023-09-18T10:12:10;1.90;;;1.00;;
1090;SDS011;534;48.704;9.122;2023-09-18T10:14:40;2.00;;;1.00;;
1090;SDS011;534;48.704;9.122;2023-09-18T10:17:10;2.77;;;1.30;;
1090;SDS011;534;48.704;9.122;2023-09-18T10:19:43;1.80;;;0.90;;
1090;SDS011;534;48.704;9.122;2023-09-18T10:22:17;3.40;;;1.10;;
1090;SDS011;534;48.704;9.122;2023-09-18T10:24:52;2.57;;;1.00;;
1090;SDS011;534;48.704;9.122;2023-09-18T10:27:25;2.10;;;1.37;;
1090;SDS011;534;48.704;9.122;2023-09-18T10:29:54;2.00;;;0.97;;
1090;SDS011;534;48.704;9.122;2023-09-18T10:32:22;2.13;;;1.13;;
1090;SDS011;534;48.704;9.122;2023-09-18T10:34:50;2.70;;;1.30;;
1090;SDS011;534;48.704;9.122;2023-09-18T10:37:17;2.10;;;1.03;;
1090;SDS011;534;48.704;9.122;2023-09-18T10:39:45;2.57;;;1.37;;
1090;SDS011;534;48.704;9.122;2023-09-18T10:42:14;2.00;;;0.90;;
1090;SDS011;534;48.704;9.122;2023-09-18T10:44:44;2.27;;;1.03;;
1090;SDS011;534;48.704;9.122;2023-09-18T10:47:12;2.00;;;1.17;;
1090;SDS011;534;48.704;9.122;2023-09-18T10:49:40;1.60;;;0.90;;
1090;SDS011;534;48.704;9.122;2023-09-18T10:52:10;3.80;;;1.60;;
1090;SDS011;534;48.704;9.122;2023-09-18T10:54:38;1.80;;;0.80;;
1090;SDS011;534;48.704;9.122;2023-09-18T10:57:05;2.83;;;1.23;;
1090;SDS011;534;48.704;9.122;2023-09-18T10:59:32;2.40;;;1.20;;
1090;SDS011;534;48.704;9.122;2023-09-18T11:02:02;1.70;;;0.90;;
1090;SDS011;534;48.704;9.122;2023-09-18T11:04:31;1.80;;;0.90;;
1090;SDS011;534;48.704;9.122;2023-09-18T11:07:02;2.20;;;1.13;;
1090;SDS011;534;48.704;9.122;2023-09-18T11:09:30;1.97;;;1.00;;
1090;SDS011;534;48.704;9.122;2023-09-18T11:12:05;2.27;;;0.90;;
1090;SDS011;534;48.704;9.122;2023-09-18T11:17:32;2.00;;;1.30;;
1090;SDS011;534;48.704;9.122;2023-09-18T11:20:05;1.70;;;1.10;;
1090;SDS011;534;48.704;9.122;2023-09-18T11:22:38;2.10;;;1.13;;
1090;SDS011;534;48.704;9.122;2023-09-18T11:27:56;1.90;;;1.20;;
1090;SDS011;534;48.704;9.122;2023-09-18T11:30:22;2.77;;;1.20;;
1090;SDS011;534;48.704;9.122;2023-09-18T11:32:49;2.00;;;1.00;;
1090;SDS011;534;48.704;9.122;2023-09-18T11:35:18;4.03;;;1.00;;
1090;SDS011;534;48.704;9.122;2023-09-18T11:37:45;1.80;;;0.93;;
1090;SDS011;534;48.704;9.122;2023-09-18T11:40:28;1.90;;;0.90;;
1090;SDS011;534;48.704;9.122;2023-09-18T11:45:56;1.70;;;0.97;;
1090;SDS011;534;48.704;9.122;2023-09-18T11:48:24;2.10;;;0.93;;
1090;SDS011;534;48.704;9.122;2023-09-18T11:50:56;1.70;;;0.90;;
1090;SDS011;534;48.704;9.122;2023-09-18T11:53:23;2.20;;;0.90;;
1090;SDS011;534;48.704;9.122;2023-09-18T11:55:52;1.53;;;0.80;;
1090;SDS011;534;48.704;9.122;2023-09-18T11:58:19;1.50;;;0.80;;
1090;SDS011;534;48.704;9.122;2023-09-18T12:00:48;1.80;;;1.00;;
1090;SDS011;534;48.704;9.122;2023-09-18T12:03:16;1.80;;;0.70;;
1090;SDS011;534;48.704;9.122;2023-09-18T12:05:51;2.17;;;0.90;;
1090;SDS011;534;48.704;9.122;2023-09-18T12:08:20;2.00;;;0.90;;
1090;SDS011;534;48.704;9.122;2023-09-18T12:10:49;1.60;;;0.90;;
1090;SDS011;534;48.704;9.122;2023-09-18T12:13:16;1.73;;;0.93;;
1090;SDS011;534;48.704;9.122;2023-09-18T12:15:43;1.73;;;0.80;;
1090;SDS011;534;48.704;9.122;2023-09-18T12:18:10;1.60;;;1.00;;
1090;SDS011;534;48.704;9.122;2023-09-18T12:20:38;1.60;;;0.80;;
1090;SDS011;534;48.704;9.122;2023-09-18T12:23:10;1.77;;;0.97;;
1090;SDS011;534;48.704;9.122;2023-09-18T12:25:39;1.80;;;1.00;;
1090;SDS011;534;48.704;9.122;2023-09-18T12:28:06;1.90;;;0.93;;
1090;SDS011;534;48.704;9.122;2023-09-18T12:30:33;1.60;;;0.90;;
1090;SDS011;534;48.704;9.122;2023-09-18T12:33:00;2.07;;;1.17;;
1090;SDS011;534;48.704;9.122;2023-09-18T12:35:28;2.53;;;0.90;;
1090;SDS011;534;48.704;9.122;2023-09-18T12:37:56;1.80;;;0.90;;
1090;SDS011;534;48.704;9.122;2023-09-18T12:40:23;2.07;;;1.10;;
1090;SDS011;534;48.704;9.122;2023-09-18T12:42:53;1.60;;;0.80;;
1090;SDS011;534;48.704;9.122;2023-09-18T12:45:20;3.60;;;1.20;;
1090;SDS011;534;48.704;9.122;2023-09-18T12:47:47;2.87;;;1.00;;
1090;SDS011;534;48.704;9.122;2023-09-18T12:50:15;1.70;;;0.90;;
1090;SDS011;534;48.704;9.122;2023-09-18T12:52:42;1.50;;;0.80;;
1090;SDS011;534;48.704;9.122;2023-09-18T12:55:19;1.73;;;0.93;;
1090;SDS011;534;48.704;9.122;2023-09-18T12:57:48;2.00;;;1.00;;
1090;SDS011;534;48.704;9.122;2023-09-18T13:00:18;1.80;;;1.03;;
1090;SDS011;534;48.704;9.122;2023-09-18T13:02:47;1.80;;;1.00;;
1090;SDS011;534;48.704;9.122;2023-09-18T13:05:18;1.60;;;0.80;;
1090;SDS011;534;48.704;9.122;2023-09-18T13:07:46;1.80;;;1.00;;
1090;SDS011;534;48.704;9.122;2023-09-18T13:10:13;2.13;;;0.80;;
1090;SDS011;534;48.704;9.122;2023-09-18T13:12:41;2.13;;;0.80;;
1090;SDS011;534;48.704;9.122;2023-09-18T13:15:09;1.90;;;0.97;;
1090;SDS011;534;48.704;9.122;2023-09-18T13:17:42;2.57;;;1.00;;
1090;SDS011;534;48.704;9.122;2023-09-18T13:20:11;1.87;;;0.97;;
1090;SDS011;534;48.704;9.122;2023-09-18T13:22:39;1.80;;;0.90;;
1090;SDS011;534;48.704;9.122;2023-09-18T13:25:07;1.90;;;0.93;;
1090;SDS011;534;48.704;9.122;2023-09-18T13:27:35;2.10;;;0.97;;
1090;SDS011;534;48.704;9.122;2023-09-18T13:30:03;2.47;;;1.00;;
1090;SDS011;534;48.704;9.122;2023-09-18T13:32:33;1.90;;;1.00;;
1090;SDS011;534;48.704;9.122;2023-09-18T13:35:02;1.83;;;0.87;;
1090;SDS011;534;48.704;9.122;2023-09-18T13:37:30;2.07;;;0.97;;
1090;SDS011;534;48.704;9.122;2023-09-18T13:39:58;1.73;;;0.97;;
1090;SDS011;534;48.704;9.122;2023-09-18T13:42:27;1.90;;;0.97;;
1090;SDS011;534;48.704;9.122;2023-09-18T13:44:55;1.83;;;1.00;;
1090;SDS011;534;48.704;9.122;2023-09-18T13:47:22;1.90;;;0.90;;
1090;SDS011;534;48.704;9.122;2023-09-18T13:49:49;3.40;;;0.90;;
1090;SDS011;534;48.704;9.122;2023-09-18T13:52:17;1.87;;;1.00;;
1090;SDS011;534;48.704;9.122;2023-09-18T13:54:44;1.90;;;1.03;;
1090;SDS011;534;48.704;9.122;2023-09-18T13:57:16;1.50;;;0.70;;
1090;SDS011;534;48.704;9.122;2023-09-18T13:59:43;1.73;;;0.90;;
1090;SDS011;534;48.704;9.122;2023-09-18T14:02:10;1.70;;;0.97;;
1090;SDS011;534;48.704;9.122;2023-09-18T14:04:37;2.37;;;1.00;;
1090;SDS011;534;48.704;9.122;2023-09-18T14:07:04;1.80;;;0.90;;
1090;SDS011;534;48.704;9.122;2023-09-18T14:09:33;1.70;;;0.90;;
1090;SDS011;534;48.704;9.122;2023-09-18T14:11:59;1.70;;;0.80;;
1090;SDS011;534;48.704;9.122;2023-09-18T14:14:27;1.97;;;1.03;;
1090;SDS011;534;48.704;9.122;2023-09-18T14:16:54;2.23;;;1.03;;
1090;SDS011;534;48.704;9.122;2023-09-18T14:19:22;2.13;;;1.13;;
1090;SDS011;534;48.704;9.122;2023-09-18T14:21:49;1.70;;;0.90;;
1090;SDS011;534;48.704;9.122;2023-09-18T14:24:17;3.53;;;0.97;;
1090;SDS011;534;48.704;9.122;2023-09-18T14:26:48;2.07;;;0.93;;
1090;SDS011;534;48.704;9.122;2023-09-18T14:29:15;1.70;;;0.80;;
1090;SDS011;534;48.704;9.122;2023-09-18T14:31:41;2.00;;;0.90;;
1090;SDS011;534;48.704;9.122;2023-09-18T14:34:09;1.70;;;0.80;;
1090;SDS011;534;48.704;9.122;2023-09-18T14:36:35;1.67;;;0.93;;
1090;SDS011;534;48.704;9.122;2023-09-18T14:39:04;2.30;;;0.90;;
1090;SDS011;534;48.704;9.122;2023-09-18T14:41:32;1.77;;;0.90;;
1090;SDS011;534;48.704;9.122;2023-09-18T14:44:00;2.13;;;0.90;;
1090;SDS011;534;48.704;9.122;2023-09-18T14:46:28;2.10;;;0.90;;
1090;SDS011;534;48.704;9.122;2023-09-18T14:48:55;1.60;;;0.73;;
1090;SDS011;534;48.704;9.122;2023-09-18T14:51:22;1.90;;;0.90;;
1090;SDS011;534;48.704;9.122;2023-09-18T14:53:49;2.17;;;0.90;;
1090;SDS011;534;48.704;9.122;2023-09-18T14:56:16;1.67;;;0.93;;
1090;SDS011;534;48.704;9.122;2023-09-18T14:58:43;3.23;;;1.00;;
1090;SDS011;534;48.704;9.122;2023-09-18T15:01:11;1.50;;;0.80;;
1090;SDS011;534;48.704;9.122;2023-09-18T15:03:38;1.67;;;0.83;;
1090;SDS011;534;48.704;9.122;2023-09-18T15:06:05;1.83;;;0.90;;
1090;SDS011;534;48.704;9.122;2023-09-18T15:08:32;1.70;;;0.90;;
1090;SDS011;534;48.704;9.122;2023-09-18T15:10:59;1.97;;;0.90;;
1090;SDS011;534;48.704;9.122;2023-09-18T15:13:26;1.70;;;0.80;;
1090;SDS011;534;48.704;9.122;2023-09-18T15:15:52;1.87;;;1.03;;
1090;SDS011;534;48.704;9.122;2023-09-18T15:18:20;2.00;;;0.80;;
1090;SDS011;534;48.704;9.122;2023-09-18T15:20:47;1.77;;;0.80;;
1090;SDS011;534;48.704;9.122;2023-09-18T15:23:19;1.60;;;0.70;;
1090;SDS011;534;48.704;9.122;2023-09-18T15:25:47;2.37;;;1.03;;
1090;SDS011;534;48.704;9.122;2023-09-18T15:28:15;1.70;;;0.90;;
1090;SDS011;534;48.704;9.122;2023-09-18T15:30:43;2.50;;;0.90;;
1090;SDS011;534;48.704;9.122;2023-09-18T15:33:09;1.70;;;0.70;;
1090;SDS011;534;48.704;9.122;2023-09-18T15:35:38;1.50;;;0.70;;
1090;SDS011;534;48.704;9.122;2023-09-18T15:38:04;2.23;;;0.93;;
1090;SDS011;534;48.704;9.122;2023-09-18T15:40:32;1.73;;;0.90;;
1090;SDS011;534;48.704;9.122;2023-09-18T15:42:59;1.50;;;0.80;;
1090;SDS011;534;48.704;9.122;2023-09-18T15:45:26;1.80;;;1.03;;
1090;SDS011;534;48.704;9.122;2023-09-18T15:47:53;2.30;;;1.00;;
1090;SDS011;534;48.704;9.122;2023-09-18T15:50:20;1.80;;;0.90;;
1090;SDS011;534;48.704;9.122;2023-09-18T15:52:49;2.20;;;1.13;;
1090;SDS011;534;48.704;9.122;2023-09-18T15:55:15;2.27;;;1.07;;
1090;SDS011;534;48.704;9.122;2023-09-18T15:57:42;1.60;;;0.90;;
1090;SDS011;534;48.704;9.122;2023-09-18T16:00:09;1.50;;;0.73;;
1090;SDS011;534;48.704;9.122;2023-09-18T16:02:37;1.63;;;0.80;;
1090;SDS011;534;48.704;9.122;2023-09-18T16:05:05;1.80;;;0.83;;
1090;SDS011;534;48.704;9.122;2023-09-18T16:07:32;2.23;;;0.80;;
1090;SDS011;534;48.704;9.122;2023-09-18T16:10:01;2.07;;;0.90;;
1090;SDS011;534;48.704;9.122;2023-09-18T16:12:29;2.20;;;1.00;;
1090;SDS011;534;48.704;9.122;2023-09-18T16:14:58;1.83;;;0.97;;
1090;SDS011;534;48.704;9.122;2023-09-18T16:17:25;1.70;;;0.90;;
1090;SDS011;534;48.704;9.122;2023-09-18T16:19:52;1.50;;;0.80;;
1090;SDS011;534;48.704;9.122;2023-09-18T16:22:19;1.50;;;0.80;;
1090;SDS011;534;48.704;9.122;2023-09-18T16:24:46;2.00;;;0.90;;
1090;SDS011;534;48.704;9.122;2023-09-18T16:27:14;1.97;;;0.90;;
1090;SDS011;534;48.704;9.122;2023-09-18T16:29:40;1.70;;;0.90;;
1090;SDS011;534;48.704;9.122;2023-09-18T16:32:07;1.90;;;1.00;;
1090;SDS011;534;48.704;9.122;2023-09-18T16:34:34;1.90;;;0.97;;
1090;SDS011;534;48.704;9.122;2023-09-18T16:37:01;1.70;;;0.90;;
1090;SDS011;534;48.704;9.122;2023-09-18T16:39:29;2.07;;;0.90;;
1090;SDS011;534;48.704;9.122;2023-09-18T16:41:56;2.07;;;1.03;;
1090;SDS011;534;48.704;9.122;2023-09-18T16:44:24;1.80;;;0.90;;
1090;SDS011;534;48.704;9.122;2023-09-18T16:46:51;1.50;;;0.80;;
1090;SDS011;534;48.704;9.122;2023-09-18T16:49:17;2.10;;;1.10;;
1090;SDS011;534;48.704;9.122;2023-09-18T16:51:47;1.80;;;0.93;;
1090;SDS011;534;48.704;9.122;2023-09-18T16:54:14;1.90;;;1.10;;
1090;SDS011;534;48.704;9.122;2023-09-18T16:56:41;1.93;;;1.07;;
1090;SDS011;534;48.704;9.122;2023-09-18T16:59:09;1.60;;;0.80;;
1090;SDS011;534;48.704;9.122;2023-09-18T17:01:37;1.70;;;0.97;;
1090;SDS011;534;48.704;9.122;2023-09-18T17:04:04;2.10;;;0.80;;
1090;SDS011;534;48.704;9.122;2023-09-18T17:06:30;1.70;;;1.00;;
1090;SDS011;534;48.704;9.122;2023-09-18T17:08:59;1.73;;;0.90;;
1090;SDS011;534;48.704;9.122;2023-09-18T17:11:29;1.90;;;1.10;;
1090;SDS011;534;48.704;9.122;2023-09-18T17:13:55;2.03;;;0.80;;
1090;SDS011;534;48.704;9.122;2023-09-18T17:16:22;2.67;;;1.10;;
1090;SDS011;534;48.704;9.122;2023-09-18T17:18:50;2.53;;;1.10;;
1090;SDS011;534;48.704;9.122;2023-09-18T17:21:20;2.10;;;1.10;;
1090;SDS011;534;48.704;9.122;2023-09-18T17:23:48;1.70;;;0.90;;
1090;SDS011;534;48.704;9.122;2023-09-18T17:26:15;2.13;;;1.00;;
1090;SDS011;534;48.704;9.122;2023-09-18T17:28:42;1.80;;;1.10;;
1090;SDS011;534;48.704;9.122;2023-09-18T17:31:08;1.80;;;1.00;;
1090;SDS011;534;48.704;9.122;2023-09-18T17:33:36;2.07;;;1.10;;
1090;SDS011;534;48.704;9.122;2023-09-18T17:36:05;1.80;;;0.80;;
1090;SDS011;534;48.704;9.122;2023-09-18T17:39:11;1.60;;;0.80;;
1090;SDS011;534;48.704;9.122;2023-09-18T17:41:25;1.60;;;1.00;;
1090;SDS011;534;48.704;9.122;2023-09-18T17:43:53;2.03;;;0.90;;
1090;SDS011;534;48.704;9.122;2023-09-18T17:46:19;1.50;;;0.80;;
1090;SDS011;534;48.704;9.122;2023-09-18T17:48:46;1.70;;;0.90;;
1090;SDS011;534;48.704;9.122;2023-09-18T17:51:14;1.83;;;1.00;;
1090;SDS011;534;48.704;9.122;2023-09-18T17:53:41;2.33;;;1.00;;
1090;SDS011;534;48.704;9.122;2023-09-18T17:56:08;1.90;;;1.17;;
1090;SDS011;534;48.704;9.122;2023-09-18T17:58:36;2.20;;;1.00;;
1090;SDS011;534;48.704;9.122;2023-09-18T18:01:03;1.70;;;0.90;;
1090;SDS011;534;48.704;9.122;2023-09-18T18:03:32;2.20;;;1.00;;
1090;SDS011;534;48.704;9.122;2023-09-18T18:05:59;1.80;;;1.00;;
1090;SDS011;534;48.704;9.122;2023-09-18T18:08:27;2.03;;;0.80;;
1090;SDS011;534;48.704;9.122;2023-09-18T18:10:54;2.13;;;1.20;;
1090;SDS011;534;48.704;9.122;2023-09-18T18:13:20;2.00;;;1.00;;
1090;SDS011;534;48.704;9.122;2023-09-18T18:15:48;1.63;;;0.87;;
1090;SDS011;534;48.704;9.122;2023-09-18T18:18:16;2.63;;;1.50;;
1090;SDS011;534;48.704;9.122;2023-09-18T18:20:43;1.50;;;0.83;;
1090;SDS011;534;48.704;9.122;2023-09-18T18:23:10;2.07;;;1.20;;
1090;SDS011;534;48.704;9.122;2023-09-18T18:25:39;1.70;;;1.10;;
1090;SDS011;534;48.704;9.122;2023-09-18T18:28:05;1.70;;;0.90;;
1090;SDS011;534;48.704;9.122;2023-09-18T18:30:34;1.90;;;1.07;;
1090;SDS011;534;48.704;9.122;2023-09-18T18:33:00;2.37;;;1.07;;
1090;SDS011;534;48.704;9.122;2023-09-18T18:35:28;1.70;;;0.90;;
1090;SDS011;534;48.704;9.122;2023-09-18T18:37:54;2.70;;;1.40;;
1090;SDS011;534;48.704;9.122;2023-09-18T18:40:21;2.47;;;1.37;;
1090;SDS011;534;48.704;9.122;2023-09-18T18:42:49;2.60;;;1.10;;
1090;SDS011;534;48.704;9.122;2023-09-18T18:45:17;2.40;;;1.00;;
1090;SDS011;534;48.704;9.122;2023-09-18T18:47:44;1.67;;;0.90;;
1090;SDS011;534;48.704;9.122;2023-09-18T18:50:12;1.70;;;0.97;;
1090;SDS011;534;48.704;9.122;2023-09-18T18:52:39;1.70;;;0.90;;
1090;SDS011;534;48.704;9.122;2023-09-18T18:55:06;1.70;;;0.87;;
1090;SDS011;534;48.704;9.122;2023-09-18T18:57:33;2.17;;;1.10;;
1090;SDS011;534;48.704;9.122;2023-09-18T19:00:01;2.23;;;1.00;;
1090;SDS011;534;48.704;9.122;2023-09-18T19:02:36;2.03;;;0.87;;
1090;SDS011;534;48.704;9.122;2023-09-18T19:05:03;2.83;;;1.43;;
1090;SDS011;534;48.704;9.122;2023-09-18T19:07:30;1.80;;;1.10;;
1090;SDS011;534;48.704;9.122;2023-09-18T19:09:56;2.17;;;1.10;;
1090;SDS011;534;48.704;9.122;2023-09-18T19:12:23;2.33;;;1.00;;
1090;SDS011;534;48.704;9.122;2023-09-18T19:14:51;1.70;;;1.10;;
1090;SDS011;534;48.704;9.122;2023-09-18T19:17:19;1.80;;;1.10;;
1090;SDS011;534;48.704;9.122;2023-09-18T19:19:46;1.50;;;0.80;;
1090;SDS011;534;48.704;9.122;2023-09-18T19:22:12;1.87;;;0.90;;
1090;SDS011;534;48.704;9.122;2023-09-18T19:24:39;2.17;;;1.40;;
1090;SDS011;534;48.704;9.122;2023-09-18T19:27:06;2.63;;;0.90;;
1090;SDS011;534;48.704;9.122;2023-09-18T19:29:33;1.80;;;0.93;;
1090;SDS011;534;48.704;9.122;2023-09-18T19:32:00;2.37;;;1.17;;
1090;SDS011;534;48.704;9.122;2023-09-18T19:34:29;1.90;;;1.10;;
1090;SDS011;534;48.704;9.122;2023-09-18T19:36:55;2.00;;;1.10;;
1090;SDS011;534;48.704;9.122;2023-09-18T19:39:22;1.90;;;1.07;;
1090;SDS011;534;48.704;9.122;2023-09-18T19:41:49;1.97;;;0.83;;
1090;SDS011;534;48.704;9.122;2023-09-18T19:44:16;1.70;;;0.90;;